Time;durP1;ratioP1;P1;durP2;ratioP2;P2;SDS_P1;SDS_P2;PMS_P1;PMS_P2;Temp;Humidity;BMP_temperature;BMP_pressure;BME280_temperature;BME280_humidity;BME280_pressure;Samples;Min_cycle;Max_cycle;Signal;HPM_P1;HPM_P2
2021/07/20 00:03:43;;;;;;;4.95;3.47;;;;;;;18.78;66.93;100824.11;4834976;59;1138744;-79
2021/07/20 00:08:49;;;;;;;7.87;4.42;;;;;;;18.89;66.89;100821.10;4835548;59;1139065;-80
2021/07/20 00:13:56;;;;;;;8.40;3.88;;;;;;;18.88;66.64;100827.47;4906806;58;1258789;-80
2021/07/20 00:19:02;;;;;;;14.60;4.15;;;;;;;18.87;66.80;100831.14;4909558;58;1138815;-80
2021/07/20 00:24:07;;;;;;;10.00;4.40;;;;;;;18.74;66.95;100835.65;4904300;58;1140851;-77
2021/07/20 00:29:14;;;;;;;7.20;4.10;;;;;;;18.56;67.02;100835.73;4907257;58;1141029;-77
2021/07/20 00:34:20;;;;;;;9.55;4.53;;;;;;;18.37;67.37;100835.15;4904061;58;1138809;-79
2021/07/20 00:39:26;;;;;;;7.63;5.30;;;;;;;18.23;67.94;100834.77;4904114;58;1138687;-75
2021/07/20 00:44:33;;;;;;;5.53;4.20;;;;;;;18.22;68.21;100842.45;4904302;58;1138815;-81
2021/07/20 00:49:39;;;;;;;6.90;4.27;;;;;;;18.29;68.45;100831.95;4905033;58;1138706;-81
2021/07/20 00:54:46;;;;;;;10.78;5.78;;;;;;;18.30;68.47;100830.12;4914321;58;1138635;-79
2021/07/20 00:59:54;;;;;;;17.73;5.40;;;;;;;18.28;68.69;100828.44;4906967;58;1140803;-81
2021/07/20 01:05:00;;;;;;;10.17;4.93;;;;;;;18.23;68.75;100821.88;4906466;58;1141045;-77
2021/07/20 01:10:10;;;;;;;6.87;4.83;;;;;;;18.14;68.95;100827.71;4889806;58;1140830;-76
2021/07/20 01:15:19;;;;;;;9.07;4.97;;;;;;;18.14;69.14;100822.86;4830509;59;1138697;-81
2021/07/20 01:20:29;;;;;;;8.27;4.70;;;;;;;18.23;69.55;100816.52;4830027;59;1138763;-76
2021/07/20 01:25:38;;;;;;;5.92;3.55;;;;;;;18.23;69.22;100819.20;4831421;59;1139014;-79
2021/07/20 01:30:48;;;;;;;8.50;4.30;;;;;;;18.08;69.37;100817.63;4825357;59;1138829;-77
2021/07/20 01:35:54;;;;;;;6.13;4.07;;;;;;;17.98;69.91;100816.92;4821228;58;1138717;-75
2021/07/20 01:41:06;;;;;;;7.27;4.77;;;;;;;17.91;70.18;100818.05;4821144;59;1138805;-76
2021/07/20 01:46:15;;;;;;;5.33;4.17;;;;;;;17.86;70.47;100813.69;4827878;59;1138682;-82
2021/07/20 01:51:22;;;;;;;6.70;4.67;;;;;;;17.85;70.68;100812.51;4820819;59;1138723;-82
2021/07/20 01:56:28;;;;;;;12.60;5.17;;;;;;;17.82;70.91;100815.00;4820953;59;1138839;-79
2021/07/20 02:01:46;;;;;;;7.17;4.57;;;;;;;17.79;71.17;100812.63;4821144;59;1140815;-79
2021/07/20 02:12:33;;;;;;;5.10;3.87;;;;;;;17.69;71.50;100812.41;4876615;58;1139012;-84
2021/07/20 02:17:51;;;;;;;5.67;4.87;;;;;;;17.61;71.81;100802.45;4858152;58;1138935;-85
2021/07/20 02:22:59;;;;;;;8.80;4.57;;;;;;;17.56;72.10;100798.93;4890014;58;1139339;-80
2021/07/20 02:28:09;;;;;;;10.27;4.23;;;;;;;17.49;72.26;100797.86;4828462;59;1139059;-81
2021/07/20 02:33:17;;;;;;;6.83;4.92;;;;;;;17.46;72.41;100788.81;4902291;58;1140981;-77
2021/07/20 02:38:24;;;;;;;8.87;4.53;;;;;;;17.59;72.80;100794.58;4902048;58;1138791;-85
2021/07/20 02:43:32;;;;;;;10.50;4.97;;;;;;;17.79;73.25;100793.06;4902102;58;1138847;-81
2021/07/20 02:48:41;;;;;;;9.93;4.83;;;;;;;17.98;73.19;100797.34;4901374;58;1140823;-83
2021/07/20 02:53:54;;;;;;;7.37;4.30;;;;;;;17.99;72.57;100787.83;4901926;58;1138938;-82
2021/07/20 02:59:07;;;;;;;11.70;3.63;;;;;;;17.93;72.22;100795.98;4901979;58;1138805;-75
2021/07/20 03:04:18;;;;;;;6.10;4.40;;;;;;;17.81;72.10;100799.09;4900767;58;1140880;-79
2021/07/20 03:09:26;;;;;;;10.50;5.30;;;;;;;17.64;72.39;100793.31;4897942;58;1138741;-82
2021/07/20 03:14:33;;;;;;;12.93;4.37;;;;;;;17.55;72.67;100793.73;4821752;59;1141299;-81
2021/07/20 03:19:46;;;;;;;9.07;4.30;;;;;;;17.51;73.01;100793.70;4821169;59;1141390;-81
2021/07/20 03:24:56;;;;;;;6.47;4.93;;;;;;;17.50;73.05;100791.52;4822839;59;1138720;-83
2021/07/20 03:30:05;;;;;;;14.27;4.77;;;;;;;17.53;73.26;100792.55;4834701;59;1138781;-80
2021/07/20 03:35:16;;;;;;;7.20;4.17;;;;;;;17.65;73.35;100794.49;4834108;59;1140954;-82
2021/07/20 03:40:24;;;;;;;6.60;4.90;;;;;;;17.69;73.42;100800.38;4834792;59;1138749;-75
2021/07/20 03:45:32;;;;;;;10.23;5.20;;;;;;;17.78;73.74;100804.27;4836318;59;1138922;-80
2021/07/20 03:50:39;;;;;;;6.87;4.40;;;;;;;17.72;73.14;100806.22;4834081;58;1140963;-76
2021/07/20 03:55:54;;;;;;;6.80;4.53;;;;;;;17.61;73.09;100805.63;4834376;59;1138925;-83
2021/07/20 04:01:02;;;;;;;12.03;5.67;;;;;;;17.51;73.41;100797.22;4837518;59;1138873;-81
2021/07/20 04:06:15;;;;;;;8.10;5.27;;;;;;;17.39;73.69;100802.98;4820866;59;1141280;-77
2021/07/20 04:11:26;;;;;;;6.03;4.17;;;;;;;17.34;74.14;100803.44;4863854;58;1138995;-80
2021/07/20 04:16:35;;;;;;;7.43;4.93;;;;;;;17.27;74.11;100809.05;4911888;58;1138861;-82
2021/07/20 04:21:42;;;;;;;8.07;5.60;;;;;;;17.23;74.42;100811.22;4901926;58;1138927;-81
2021/07/20 04:26:48;;;;;;;8.00;4.90;;;;;;;17.19;74.69;100813.85;4842472;59;1138720;-79
2021/07/20 04:31:59;;;;;;;11.43;6.00;;;;;;;17.16;75.04;100809.30;4839803;59;1138727;-80
2021/07/20 04:37:10;;;;;;;8.13;5.13;;;;;;;17.17;75.41;100815.83;4828713;59;1140737;-81
2021/07/20 04:42:18;;;;;;;9.98;4.70;;;;;;;17.18;75.57;100818.84;4833491;59;1138770;-82
2021/07/20 04:47:25;;;;;;;8.83;5.70;;;;;;;17.21;75.67;100819.05;4830150;59;1138638;-78
2021/07/20 04:52:36;;;;;;;10.67;6.13;;;;;;;17.26;76.01;100822.59;4839208;59;1138623;-84
2021/07/20 04:57:42;;;;;;;12.70;6.60;;;;;;;17.26;76.38;100822.59;4839617;59;1140679;-80
2021/07/20 05:02:50;;;;;;;10.65;4.80;;;;;;;17.30;76.63;100827.95;4831265;59;1140976;-78
2021/07/20 05:07:58;;;;;;;9.40;4.73;;;;;;;17.28;76.63;100828.60;4833390;59;1141221;-82
2021/07/20 05:13:08;;;;;;;8.47;5.20;;;;;;;17.25;76.70;100832.95;4838448;59;1138736;-83
2021/07/20 05:18:16;;;;;;;;;;;;;;;17.27;76.92;100830.44;4836964;59;1138753;-81
2021/07/20 05:23:22;;;;;;;6.80;4.87;;;;;;;17.33;77.08;100839.19;4938015;59;20194;-86
2021/07/20 05:28:32;;;;;;;10.40;5.07;;;;;;;17.37;77.20;100840.56;4938050;59;21544;-81
2021/07/20 05:33:40;;;;;;;10.97;4.10;;;;;;;17.42;77.54;100846.77;4944009;59;21170;-80
2021/07/20 05:38:48;;;;;;;10.17;4.67;;;;;;;17.47;77.60;100849.82;4943490;59;21230;-84
2021/07/20 05:44:15;;;;;;;7.57;5.00;;;;;;;17.58;77.85;100850.90;4939026;59;21189;-84
2021/07/20 05:49:23;;;;;;;13.87;4.30;;;;;;;17.67;77.61;100861.21;4924240;60;22072;-78
2021/07/20 05:54:31;;;;;;;10.50;4.27;;;;;;;17.81;77.75;100863.31;4931146;60;21196;-82
2021/07/20 05:59:47;;;;;;;6.87;3.60;;;;;;;17.95;77.86;100857.87;4934877;60;21616;-81
2021/07/20 06:04:56;;;;;;;11.80;4.73;;;;;;;18.02;77.56;100859.78;4934916;60;21173;-83
2021/07/20 06:10:03;;;;;;;5.47;3.80;;;;;;;18.13;77.48;100862.67;4933839;60;21177;-81
2021/07/20 06:15:10;;;;;;;6.77;3.60;;;;;;;18.24;77.44;100875.77;4928538;60;21505;-81
2021/07/20 06:20:17;;;;;;;6.83;4.17;;;;;;;18.32;76.97;100871.81;4929675;60;21162;-82
2021/07/20 06:25:24;;;;;;;7.73;3.40;;;;;;;18.43;77.10;100873.35;4929737;60;21178;-80
2021/07/20 06:30:32;;;;;;;4.57;3.23;;;;;;;18.52;76.96;100877.73;4923859;59;21605;-82
2021/07/20 06:35:42;;;;;;;10.33;3.53;;;;;;;18.66;76.82;100878.98;4931339;60;21182;-79
2021/07/20 06:40:52;;;;;;;6.67;3.50;;;;;;;18.74;76.35;100881.20;4935042;60;21234;-77
2021/07/20 06:45:58;;;;;;;5.08;3.60;;;;;;;18.93;77.11;100877.41;4935027;60;21730;-80
2021/07/20 06:51:05;;;;;;;6.47;3.60;;;;;;;19.17;76.51;100876.09;4931836;60;21161;-77
2021/07/20 06:56:15;;;;;;;6.08;3.40;;;;;;;19.33;76.48;100876.11;4925456;60;22451;-77
2021/07/20 07:01:22;;;;;;;6.25;2.87;;;;;;;19.57;75.27;100873.95;4913179;60;21742;-79
2021/07/20 07:06:30;;;;;;;4.17;2.55;;;;;;;19.68;74.14;100874.63;4920443;59;21197;-81
2021/07/20 07:11:37;;;;;;;8.35;3.12;;;;;;;19.63;72.88;100885.36;4923494;60;21221;-80
2021/07/20 07:16:45;;;;;;;8.08;4.00;;;;;;;19.60;73.74;100874.95;4922682;60;22299;-84
2021/07/20 07:21:53;;;;;;;4.45;2.90;;;;;;;19.72;74.39;100875.44;4932840;59;21281;-79
2021/07/20 07:27:00;;;;;;;6.08;3.30;;;;;;;19.94;74.12;100874.75;4935445;60;21162;-79
2021/07/20 07:32:06;;;;;;;8.83;2.80;;;;;;;20.03;74.16;100879.58;4937866;59;21134;-77
2021/07/20 07:37:12;;;;;;;6.28;2.50;;;;;;;20.20;72.63;100875.00;4928395;60;21213;-79
2021/07/20 07:42:19;;;;;;;5.97;2.60;;;;;;;20.22;72.39;100879.70;4917126;60;22181;-83
2021/07/20 07:47:26;;;;;;;6.95;2.60;;;;;;;20.27;71.14;100877.34;4919655;59;21499;-80
2021/07/20 07:52:34;;;;;;;2.58;1.85;;;;;;;20.20;69.89;100884.41;4851785;61;21235;-81
2021/07/20 07:57:43;;;;;;;4.33;1.90;;;;;;;20.17;69.47;100891.45;4921398;59;21775;-82
2021/07/20 08:02:52;;;;;;;7.10;2.60;;;;;;;20.14;68.82;100883.27;4924091;60;21217;-78
2021/07/20 08:07:59;;;;;;;5.10;2.42;;;;;;;20.24;69.26;100887.09;4927058;59;21753;-81
2021/07/20 08:13:06;;;;;;;3.65;2.47;;;;;;;20.33;68.89;100882.84;4851092;61;21286;-79
2021/07/20 08:18:13;;;;;;;4.58;2.22;;;;;;;20.47;68.84;100888.03;4929482;59;21174;-83
2021/07/20 08:23:20;;;;;;;5.62;2.12;;;;;;;20.62;69.81;100888.97;4932482;60;21232;-83
2021/07/20 08:28:50;;;;;;;2.67;2.45;;;;;;;20.85;69.19;100885.52;4929007;60;21193;-81
2021/07/20 08:34:02;;;;;;;3.95;1.98;;;;;;;20.98;68.99;100885.77;4936086;59;21162;-81
2021/07/20 08:39:10;;;;;;;6.80;2.47;;;;;;;21.19;68.05;100882.44;4930898;59;21253;-77
2021/07/20 08:44:35;;;;;;;5.45;2.87;;;;;;;21.19;67.00;100883.31;4933958;60;21217;-79
2021/07/20 08:50:13;;;;;;;4.67;2.42;;;;;;;21.17;66.24;100882.62;4932207;60;21182;-81
2021/07/20 08:55:28;;;;;;;7.08;2.50;;;;;;;21.15;66.23;100876.58;4929667;60;21130;-80
2021/07/20 09:00:43;;;;;;;6.60;2.35;;;;;;;21.05;65.29;100875.48;4932236;60;21162;-82
2021/07/20 09:06:23;;;;;;;6.92;2.37;;;;;;;20.98;65.81;100881.23;4933934;59;21203;-82
2021/07/20 09:12:04;;;;;;;7.83;2.47;;;;;;;20.97;64.64;100872.83;4846064;61;21275;-81
2021/07/20 09:17:32;;;;;;;9.45;2.50;;;;;;;21.06;64.77;100869.59;4846597;61;22160;-80
2021/07/20 09:22:47;;;;;;;6.10;2.90;;;;;;;21.34;66.15;100859.16;4840233;60;21164;-81
2021/07/20 09:28:16;;;;;;;5.15;2.92;;;;;;;21.52;64.22;100854.80;4829420;61;21252;-82
2021/07/20 09:33:47;;;;;;;2.37;1.87;;;;;;;21.57;63.92;100853.22;4836215;60;21168;-81
2021/07/20 09:39:32;;;;;;;3.40;2.30;;;;;;;21.72;63.22;100851.91;4830197;60;21194;-82
2021/07/20 09:44:51;;;;;;;7.90;2.98;;;;;;;21.83;63.95;100846.59;4845108;59;21192;-83
2021/07/20 09:50:18;;;;;;;3.25;2.27;;;;;;;21.97;64.60;100847.95;4932006;59;21232;-83
2021/07/20 09:55:59;;;;;;;6.60;2.50;;;;;;;22.06;63.46;100844.68;4926864;60;21152;-83
2021/07/20 10:01:28;;;;;;;4.95;2.52;;;;;;;22.09;63.71;100846.50;4929755;60;21128;-86
2021/07/20 10:06:56;;;;;;;5.85;2.87;;;;;;;21.97;61.94;100842.57;4930222;59;21152;-83
2021/07/20 10:12:09;;;;;;;4.72;2.35;;;;;;;21.90;60.50;100836.75;4928133;60;21125;-82
2021/07/20 10:17:38;;;;;;;4.00;2.98;;;;;;;21.76;59.84;100831.17;4930014;60;21148;-83
2021/07/20 10:23:12;;;;;;;9.13;2.85;;;;;;;21.71;60.47;100830.03;4923644;60;21184;-81
2021/07/20 10:28:31;;;;;;;3.80;2.30;;;;;;;21.69;60.16;100834.25;4891968;60;22237;-81
2021/07/20 10:33:57;;;;;;;3.53;2.17;;;;;;;21.70;60.46;100833.23;4831855;60;21569;-80
2021/07/20 10:39:09;;;;;;;6.40;2.95;;;;;;;21.66;59.67;100836.50;4797585;61;21587;-85
2021/07/20 10:44:22;;;;;;;8.15;2.20;;;;;;;21.63;59.69;100830.97;4844933;61;21216;-82
2021/07/20 10:49:56;;;;;;;8.43;3.12;;;;;;;21.54;58.29;100830.70;4789166;61;21193;-80
2021/07/20 10:55:13;;;;;;;5.05;1.87;;;;;;;21.41;58.82;100835.88;4776453;61;21702;-77
2021/07/20 11:00:21;;;;;;;4.85;2.70;;;;;;;21.39;58.26;100838.74;4783516;61;21213;-89
2021/07/20 11:05:30;;;;;;;6.70;2.52;;;;;;;21.39;60.02;100843.28;4880485;60;21170;-80
2021/07/20 11:10:56;;;;;;;5.35;2.65;;;;;;;21.35;59.65;100840.66;4934987;60;21473;-85
2021/07/20 11:16:05;;;;;;;9.00;2.60;;;;;;;21.26;59.00;100835.83;4896060;60;21190;-81
2021/07/20 11:21:14;;;;;;;8.15;3.40;;;;;;;21.16;58.94;100835.22;4858686;60;21134;-85
2021/07/20 11:26:21;;;;;;;5.25;1.80;;;;;;;21.14;59.16;100836.41;4892620;60;21134;-82
2021/07/20 11:31:54;;;;;;;3.95;2.20;;;;;;;21.20;59.71;100833.04;4911039;59;21600;-81
2021/07/20 11:37:22;;;;;;;5.00;2.37;;;;;;;21.23;59.17;100840.76;4931101;59;21182;-82
2021/07/20 11:42:59;;;;;;;4.30;2.37;;;;;;;21.32;59.27;100832.42;4856980;61;21192;-83
2021/07/20 11:48:13;;;;;;;7.55;2.75;;;;;;;21.36;58.69;100826.19;4850767;61;21500;-81
2021/07/20 11:53:43;;;;;;;7.22;2.87;;;;;;;21.46;58.81;100825.92;4912825;60;21237;-77
2021/07/20 11:59:26;;;;;;;2.58;2.15;;;;;;;21.52;58.05;100823.34;4791313;61;21569;-80
2021/07/20 12:05:13;;;;;;;4.58;2.22;;;;;;;21.54;57.30;100827.20;4699870;62;21315;-79
2021/07/20 12:10:47;;;;;;;6.25;2.75;;;;;;;21.63;58.88;100820.70;4693831;62;21255;-78
2021/07/20 12:15:53;;;;;;;4.45;2.33;;;;;;;21.74;58.93;100821.59;4729974;62;21200;-82
2021/07/20 12:20:59;;;;;;;6.55;2.45;;;;;;;21.77;57.86;100822.58;4709065;62;21205;-77
2021/07/20 12:26:07;;;;;;;6.20;2.62;;;;;;;21.81;57.22;100828.44;4709314;62;21237;-81
2021/07/20 12:31:13;;;;;;;3.67;2.02;;;;;;;21.81;56.67;100819.02;4702493;62;21157;-79
2021/07/20 12:36:20;;;;;;;5.47;3.00;;;;;;;21.84;56.64;100818.14;4800619;61;21152;-78
2021/07/20 12:41:26;;;;;;;6.67;3.12;;;;;;;21.90;57.19;100820.08;4918363;60;21162;-79
2021/07/20 12:46:36;;;;;;;4.33;2.72;;;;;;;21.89;56.21;100810.33;4931669;60;21247;-79
2021/07/20 12:51:55;;;;;;;6.65;2.10;;;;;;;21.97;56.02;100814.29;4935731;60;21192;-80
2021/07/20 12:57:02;;;;;;;4.30;2.67;;;;;;;22.06;55.76;100809.16;4936099;59;21187;-80
2021/07/20 13:02:17;;;;;;;5.28;2.50;;;;;;;22.12;54.34;100804.05;4934667;59;21160;-80
2021/07/20 13:07:24;;;;;;;5.00;2.37;;;;;;;22.09;55.27;100811.48;4926022;59;21917;-79
2021/07/20 13:12:30;;;;;;;3.47;1.95;;;;;;;22.10;54.67;100809.63;4895897;60;22160;-79
2021/07/20 13:17:38;;;;;;;4.60;2.67;;;;;;;22.12;54.20;100812.97;4934348;60;21186;-81
2021/07/20 13:22:43;;;;;;;8.88;2.58;;;;;;;22.17;55.09;100809.18;4932213;60;21213;-79
2021/07/20 13:27:53;;;;;;;4.05;2.15;;;;;;;22.15;54.26;100803.69;4970008;59;21107;-81
2021/07/20 13:33:00;;;;;;;3.05;1.87;;;;;;;22.14;53.10;100802.01;4945526;59;21200;-81
2021/07/20 13:38:06;;;;;;;5.83;2.20;;;;;;;22.19;53.34;100813.88;4925188;60;21197;-81
2021/07/20 13:43:12;;;;;;;8.35;2.30;;;;;;;22.22;52.95;100805.42;4928819;60;21216;-80
2021/07/20 13:48:21;;;;;;;3.92;2.33;;;;;;;22.34;54.03;100803.08;4932354;59;21209;-81
2021/07/20 13:53:31;;;;;;;6.30;2.00;;;;;;;22.48;52.34;100798.67;4924329;59;21249;-80
2021/07/20 13:58:38;;;;;;;5.25;2.05;;;;;;;22.56;52.27;100802.63;4934484;59;21540;-82
2021/07/20 14:03:45;;;;;;;2.75;2.27;;;;;;;22.61;51.65;100806.40;4928433;59;21782;-82
2021/07/20 14:08:52;;;;;;;5.58;2.10;;;;;;;22.58;50.93;100805.97;4931886;59;21267;-79
2021/07/20 14:14:00;;;;;;;2.92;1.67;;;;;;;22.53;50.89;100811.09;4920243;59;21168;-81
2021/07/20 14:19:09;;;;;;;4.85;2.37;;;;;;;22.51;51.95;100813.13;4927306;60;21158;-78
2021/07/20 14:24:18;;;;;;;9.18;2.35;;;;;;;22.51;52.51;100805.88;4928872;59;21316;-80
2021/07/20 14:29:29;;;;;;;2.42;2.15;;;;;;;22.49;51.60;100806.58;4921410;59;21161;-79
2021/07/20 14:34:55;;;;;;;1.92;1.82;;;;;;;22.55;52.58;100810.39;4935327;60;21161;-80
2021/07/20 14:40:04;;;;;;;3.90;1.95;;;;;;;22.67;51.89;100805.65;4956120;59;21674;-77
2021/07/20 14:45:13;;;;;;;5.55;2.27;;;;;;;22.65;52.49;100809.05;4982003;59;21193;-78
2021/07/20 14:50:27;;;;;;;2.77;2.10;;;;;;;22.70;51.22;100805.27;4992877;59;21229;-77
2021/07/20 14:55:49;;;;;;;6.83;2.10;;;;;;;22.91;50.66;100805.84;4936602;60;21196;-77
2021/07/20 15:00:59;;;;;;;3.52;1.95;;;;;;;23.12;49.77;100804.98;4974812;59;21188;-80
2021/07/20 15:06:24;;;;;;;4.08;1.65;;;;;;;23.35;50.93;100804.27;5013631;59;21194;-78
2021/07/20 15:11:50;;;;;;;3.55;2.15;;;;;;;23.50;48.42;100800.97;5018659;59;21119;-82
2021/07/20 15:17:02;;;;;;;3.65;2.00;;;;;;;23.62;49.23;100802.63;5011376;59;21679;-78
2021/07/20 15:22:20;;;;;;;3.58;2.17;;;;;;;23.68;48.50;100803.72;5007813;59;21301;-82
2021/07/20 15:27:24;;;;;;;8.53;2.27;;;;;;;23.74;47.60;100798.34;5007283;59;21210;-78
2021/07/20 15:32:31;;;;;;;2.65;2.35;;;;;;;23.76;46.32;100803.55;5007749;59;21225;-80
2021/07/20 15:37:37;;;;;;;4.87;1.90;;;;;;;23.79;46.38;100798.59;5002289;58;21227;-78
2021/07/20 15:42:47;;;;;;;2.80;1.92;;;;;;;23.82;45.54;100798.72;4999585;59;21498;-81
2021/07/20 15:48:07;;;;;;;3.37;2.02;;;;;;;23.81;46.08;100795.19;4999646;59;21214;-81
2021/07/20 15:53:10;;;;;;;6.53;2.02;;;;;;;23.80;45.51;100794.03;4999818;59;21540;-79
2021/07/20 15:58:19;;;;;;;15.95;2.80;;;;;;;23.74;45.47;100789.41;4999636;59;21213;-79
2021/07/20 16:03:27;;;;;;;6.60;2.25;;;;;;;23.76;46.33;100792.75;5000618;59;21226;-80
2021/07/20 16:08:35;;;;;;;2.72;1.65;;;;;;;23.77;45.45;100783.62;4935498;59;21244;-85
2021/07/20 16:13:51;;;;;;;4.35;2.27;;;;;;;23.71;45.64;100780.34;4927775;60;21675;-89
2021/07/20 16:18:58;;;;;;;2.47;1.95;;;;;;;23.72;46.93;100778.80;4927741;60;21556;-88
2021/07/20 16:24:10;;;;;;;5.28;2.40;;;;;;;23.71;45.69;100769.03;4926988;60;21158;-79
2021/07/20 16:29:16;;;;;;;4.73;2.20;;;;;;;23.70;46.53;100774.62;4926488;60;21162;-89
2021/07/20 16:34:23;;;;;;;4.47;2.47;;;;;;;23.86;47.17;100772.95;4927221;60;21142;-85
2021/07/20 16:39:36;;;;;;;4.67;2.20;;;;;;;23.85;45.64;100780.74;4918483;60;22445;-89
2021/07/20 16:44:38;;;;;;;4.90;2.15;;;;;;;23.77;46.28;100775.52;4916465;60;21233;-82
2021/07/20 16:49:44;;;;;;;3.92;2.05;;;;;;;23.75;46.04;100768.96;4916993;60;21213;-83
2021/07/20 16:54:50;;;;;;;3.67;1.80;;;;;;;23.69;45.85;100772.44;4916694;60;21778;-82
2021/07/20 16:59:57;;;;;;;11.68;2.25;;;;;;;23.57;45.02;100775.89;4916571;60;21580;-83
2021/07/20 17:05:04;;;;;;;7.92;2.15;;;;;;;23.50;44.96;100778.53;4926546;59;21560;-78
2021/07/20 17:10:11;;;;;;;4.85;2.65;;;;;;;23.43;45.93;100778.98;4928609;59;21219;-79
2021/07/20 17:15:22;;;;;;;6.33;2.67;;;;;;;23.36;45.98;100776.26;4928394;60;21161;-84
2021/07/20 17:20:28;;;;;;;8.40;3.13;;;;;;;23.28;46.38;100777.73;4920044;60;21193;-83
2021/07/20 17:25:34;;;;;;;8.03;3.37;;;;;;;23.21;46.72;100778.72;4927029;59;21274;-87
2021/07/20 17:30:41;;;;;;;7.22;2.95;;;;;;;23.11;47.09;100782.57;4925996;59;21246;-77
2021/07/20 17:35:46;;;;;;;3.42;2.67;;;;;;;23.04;47.12;100785.73;4925217;59;21177;-84
2021/07/20 17:40:52;;;;;;;6.92;3.30;;;;;;;23.01;47.15;100787.98;4891879;60;21183;-88
2021/07/20 17:45:59;;;;;;;3.72;2.27;;;;;;;22.89;47.86;100797.62;4910130;60;21183;-78
2021/07/20 17:51:05;;;;;;;8.13;2.83;;;;;;;22.80;47.75;100799.08;4894796;60;21576;-81
2021/07/20 17:56:10;;;;;;;2.95;1.85;;;;;;;22.71;47.47;100802.91;4913363;60;21549;-85
2021/07/20 18:01:16;;;;;;;6.12;2.10;;;;;;;22.59;48.30;100806.30;4905807;60;21266;-80
2021/07/20 18:06:22;;;;;;;3.08;2.05;;;;;;;22.47;48.80;100814.02;4882189;60;21233;-86
2021/07/20 18:11:28;;;;;;;17.82;2.72;;;;;;;22.31;49.23;100811.02;4906320;60;21233;-83
2021/07/20 18:16:35;;;;;;;6.28;2.52;;;;;;;22.21;49.70;100817.73;4895984;60;21195;-83
2021/07/20 18:21:41;;;;;;;2.60;2.40;;;;;;;22.13;50.11;100823.23;4864873;60;22093;-85
2021/07/20 18:26:47;;;;;;;6.33;2.42;;;;;;;22.03;50.41;100825.68;4887602;60;21182;-86
2021/07/20 18:31:53;;;;;;;4.12;2.12;;;;;;;21.92;50.67;100820.73;4917060;60;21189;-82
2021/07/20 18:36:59;;;;;;;6.00;2.00;;;;;;;21.84;50.93;100829.42;4895153;59;21161;-83
2021/07/20 18:42:05;;;;;;;3.75;2.30;;;;;;;21.73;51.22;100832.03;4935815;59;21193;-82
2021/07/20 18:47:11;;;;;;;5.65;2.55;;;;;;;21.58;51.30;100833.87;4936274;59;21157;-78
2021/07/20 18:52:17;;;;;;;3.90;2.27;;;;;;;21.44;51.81;100840.06;4929917;59;21197;-80
2021/07/20 18:57:23;;;;;;;7.60;2.37;;;;;;;21.27;52.08;100841.54;4931098;59;21180;-84
2021/07/20 19:02:29;;;;;;;5.60;2.95;;;;;;;21.12;52.38;100850.53;4936351;60;21120;-80
2021/07/20 19:07:34;;;;;;;5.60;2.10;;;;;;;21.04;52.68;100860.36;4936477;59;21137;-80
2021/07/20 19:12:40;;;;;;;3.47;2.83;;;;;;;20.94;52.82;100865.61;4933454;60;21161;-84
2021/07/20 19:17:46;;;;;;;8.13;2.77;;;;;;;20.80;53.11;100866.38;4937167;60;21126;-86
2021/07/20 19:22:51;;;;;;;4.97;2.60;;;;;;;20.65;53.23;100868.47;4936959;60;21235;-85
2021/07/20 19:27:58;;;;;;;6.90;2.58;;;;;;;20.55;53.48;100876.42;4936079;60;21163;-77
2021/07/20 19:33:04;;;;;;;2.98;2.30;;;;;;;20.47;53.87;100879.16;4935963;60;21120;-84
2021/07/20 19:38:11;;;;;;;7.92;2.77;;;;;;;20.44;54.09;100883.53;4936024;59;21208;-80
2021/07/20 19:43:17;;;;;;;5.60;2.80;;;;;;;20.43;54.26;100888.07;4932681;59;21097;-85
2021/07/20 19:48:23;;;;;;;4.00;2.55;;;;;;;20.33;54.31;100892.25;4936688;59;21176;-78
2021/07/20 19:53:29;;;;;;;4.97;2.37;;;;;;;20.24;54.71;100897.83;4937206;60;21214;-78
2021/07/20 19:58:35;;;;;;;7.80;2.12;;;;;;;20.14;54.95;100895.86;4937250;60;21186;-84
2021/07/20 20:03:40;;;;;;;5.28;2.42;;;;;;;20.05;55.33;100903.58;4936637;59;21106;-87
2021/07/20 20:08:46;;;;;;;9.08;2.70;;;;;;;19.99;55.68;100909.15;4938346;60;21221;-83
2021/07/20 20:13:51;;;;;;;7.10;2.77;;;;;;;20.02;56.73;100908.28;4934294;60;21193;-85
2021/07/20 20:18:57;;;;;;;7.55;3.35;;;;;;;20.08;56.76;100911.30;4924440;60;21122;-84
2021/07/20 20:24:03;;;;;;;5.87;3.72;;;;;;;20.00;56.44;100914.85;4923347;60;21177;-83
2021/07/20 20:29:08;;;;;;;7.17;3.35;;;;;;;19.98;57.07;100919.05;4923929;60;21189;-78
2021/07/20 20:34:14;;;;;;;6.97;3.70;;;;;;;19.90;56.74;100920.38;4924152;60;21181;-79
2021/07/20 20:39:20;;;;;;;10.18;4.95;;;;;;;19.80;56.78;100921.08;4924585;60;21201;-83
2021/07/20 20:44:26;;;;;;;6.28;3.37;;;;;;;19.66;56.88;100924.44;4926018;60;21208;-83
2021/07/20 20:49:31;;;;;;;8.83;3.27;;;;;;;19.61;57.63;100939.69;4925880;60;21125;-77
2021/07/20 20:54:37;;;;;;;10.48;3.17;;;;;;;19.71;58.00;100943.54;4926374;60;21185;-77
2021/07/20 20:59:43;;;;;;;5.85;3.15;;;;;;;19.80;58.31;100940.37;4928237;59;21702;-76
2021/07/20 21:04:48;;;;;;;6.20;4.28;;;;;;;19.75;58.04;100947.57;4948408;59;21259;-85
2021/07/20 21:09:55;;;;;;;4.90;3.12;;;;;;;19.73;58.32;100942.03;5018941;59;21552;-83
2021/07/20 21:15:00;;;;;;;4.37;3.50;;;;;;;19.73;58.53;100942.88;4935873;59;21100;-82
2021/07/20 21:20:08;;;;;;;7.83;4.05;;;;;;;19.75;58.68;100947.57;4938671;59;21229;-84
2021/07/20 21:25:14;;;;;;;15.72;6.70;;;;;;;19.70;58.76;100948.60;4939578;60;21705;-78
2021/07/20 21:30:20;;;;;;;18.15;7.40;;;;;;;19.68;59.04;100955.14;4907490;59;21221;-81
2021/07/20 21:35:25;;;;;;;18.85;7.03;;;;;;;19.63;59.45;100947.08;4938020;60;21269;-82
2021/07/20 21:40:31;;;;;;;9.63;5.25;;;;;;;19.57;59.38;100950.91;4937315;60;21194;-76
2021/07/20 21:45:37;;;;;;;9.00;4.67;;;;;;;19.34;59.27;100960.09;4934569;60;22245;-85
2021/07/20 21:50:45;;;;;;;8.50;4.78;;;;;;;19.10;59.45;100962.20;4935463;60;21198;-82
2021/07/20 21:55:50;;;;;;;5.05;3.52;;;;;;;18.93;59.92;100968.54;4934669;60;21193;-80
2021/07/20 22:00:56;;;;;;;8.63;4.90;;;;;;;18.90;60.08;100971.53;4933706;60;21193;-80
2021/07/20 22:06:02;;;;;;;15.48;4.78;;;;;;;18.90;60.56;100974.22;4957359;59;21172;-80
2021/07/20 22:11:08;;;;;;;7.45;4.00;;;;;;;18.90;60.69;100976.90;4991838;59;21155;-83
2021/07/20 22:16:15;;;;;;;5.58;4.33;;;;;;;18.90;60.86;100979.58;4988290;59;21202;-83
2021/07/20 22:21:21;;;;;;;7.03;4.17;;;;;;;18.92;61.17;100976.23;4988809;59;21213;-84
2021/07/20 22:26:27;;;;;;;5.37;4.55;;;;;;;18.83;60.83;100983.39;4989203;59;21130;-77
2021/07/20 22:31:33;;;;;;;6.12;4.47;;;;;;;18.76;61.15;100982.87;4988277;59;21158;-81
2021/07/20 22:36:40;;;;;;;13.10;4.62;;;;;;;18.67;61.50;100977.11;4988213;59;21143;-79
2021/07/20 22:41:46;;;;;;;14.70;4.72;;;;;;;18.66;61.85;100989.67;4995201;59;21532;-78
2021/07/20 22:46:52;;;;;;;7.93;4.73;;;;;;;18.59;61.75;100998.02;5001197;59;22482;-76
2021/07/20 22:51:58;;;;;;;7.72;5.47;;;;;;;18.59;62.20;100998.86;5002094;59;21286;-82
2021/07/20 22:57:06;;;;;;;12.60;5.72;;;;;;;18.67;62.39;100999.89;5003052;59;21205;-85
2021/07/20 23:02:14;;;;;;;15.05;6.40;;;;;;;18.68;62.43;100997.05;5003316;59;21548;-78
2021/07/20 23:07:19;;;;;;;11.33;6.72;;;;;;;18.63;62.49;101002.57;4953452;59;21531;-85
2021/07/20 23:12:25;;;;;;;13.80;7.40;;;;;;;18.57;62.73;101002.66;4926314;60;21217;-79
2021/07/20 23:17:31;;;;;;;12.07;7.23;;;;;;;18.38;62.38;101013.09;4926338;60;21678;-79
2021/07/20 23:22:37;;;;;;;11.43;7.03;;;;;;;18.19;62.88;101013.28;4927504;60;21245;-84
2021/07/20 23:27:43;;;;;;;12.87;7.43;;;;;;;18.10;63.28;101016.91;4927592;60;21266;-88
2021/07/20 23:32:51;;;;;;;11.90;5.67;;;;;;;17.98;63.58;101023.00;4927650;60;21212;-83
2021/07/20 23:38:00;;;;;;;15.87;7.90;;;;;;;17.87;63.92;101024.06;4928866;60;21209;-80
2021/07/20 23:43:09;;;;;;;8.83;5.50;;;;;;;17.74;64.16;101021.43;4924225;60;21238;-83
2021/07/20 23:48:15;;;;;;;12.70;6.43;;;;;;;17.62;64.63;101028.81;4919417;60;21248;-78
2021/07/20 23:53:22;;;;;;;12.20;5.63;;;;;;;17.45;65.06;101026.96;4919486;60;21201;-77
2021/07/20 23:58:27;;;;;;;12.33;6.83;;;;;;;17.30;65.68;101031.14;4916470;60;21550;-81
